Wetterstation Vordersexau
Wetterdaten: Woche 11.09.17 - 17.09.17 (KW37)
Datum Zeit Temp. A. Feuchte A. Luftdruck Regen Wind Richtung Taupunkt Windchill Windben
11.09.2017 00:00 9,3 C 83 % 1004,2 hPa 0,0 l/m 0,0 km/h N-NO 6,6 C 9,3 C 0,0 km/h
11.09.2017 01:00 12,4 C 78 % 1003,8 hPa 0,0 l/m 0,0 km/h S-SO 8,7 C 12,4 C 0,0 km/h
11.09.2017 02:00 12,2 C 77 % 1002,8 hPa 0,0 l/m 5,8 km/h S-SO 8,3 C 12,2 C 3,2 km/h
11.09.2017 03:00 11,3 C 77 % 1002,6 hPa 0,0 l/m 0,0 km/h NO 7,4 C 11,3 C 0,0 km/h
11.09.2017 04:00 9,5 C 81 % 1002,1 hPa 0,0 l/m 0,0 km/h SO 6,4 C 9,5 C 0,0 km/h
11.09.2017 05:00 10,4 C 82 % 1001,3 hPa 0,0 l/m 0,0 km/h SW 7,5 C 10,4 C 0,0 km/h
11.09.2017 06:00 14,5 C 71 % 1000,9 hPa 0,0 l/m 7,1 km/h SW 9,3 C 14,1 C 4,0 km/h
11.09.2017 07:00 15,1 C 66 % 1000,9 hPa 0,0 l/m 0,0 km/h SW 8,8 C 15,1 C 0,0 km/h
11.09.2017 08:00 14,7 C 71 % 1001,3 hPa 0,0 l/m 0,0 km/h SO 9,5 C 14,7 C 0,0 km/h
11.09.2017 09:00 14,5 C 74 % 1001,6 hPa 0,0 l/m 0,0 km/h W-SW 9,9 C 14,5 C 0,0 km/h
11.09.2017 10:00 15,9 C 73 % 1001,3 hPa 0,0 l/m 1,9 km/h W 11,1 C 15,9 C 1,1 km/h
11.09.2017 11:00 16,8 C 70 % 1001,2 hPa 0,0 l/m 22,0 km/h S-SW 11,3 C 11,6 C 12,2 km/h
11.09.2017 12:00 16,9 C 68 % 1001,9 hPa 0,0 l/m 20,7 km/h W 11,0 C 12,0 C 11,5 km/h
11.09.2017 13:00 16,9 C 66 % 1002,4 hPa 0,0 l/m 6,5 km/h W 10,5 C 16,9 C 3,6 km/h
11.09.2017 14:00 16,7 C 61 % 1002,9 hPa 0,0 l/m 22,0 km/h S 9,1 C 11,5 C 12,2 km/h
11.09.2017 15:00 17,4 C 60 % 1002,8 hPa 0,0 l/m 1,3 km/h SW 9,6 C 17,4 C 0,7 km/h
11.09.2017 16:00 18,1 C 57 % 1002,6 hPa 0,0 l/m 25,3 km/h S-SO 9,4 C 12,8 C 14,0 km/h
11.09.2017 17:00 17,1 C 58 % 1003,0 hPa 0,0 l/m 16,2 km/h W-SW 8,8 C 13,4 C 9,0 km/h
11.09.2017 18:00 20,4 C 47 % 1003,4 hPa 0,0 l/m 17,5 km/h W-SW 8,7 C 17,2 C 9,7 km/h
11.09.2017 19:00 15,8 C 60 % 1003,8 hPa 0,0 l/m 0,0 km/h S 8,1 C 15,8 C 0,0 km/h
11.09.2017 20:00 14,9 C 60 % 1004,7 hPa 0,0 l/m 3,2 km/h S 7,2 C 14,9 C 1,8 km/h
11.09.2017 21:00 14,5 C 63 % 1005,1 hPa 0,0 l/m 5,8 km/h W-SW 7,5 C 14,5 C 3,2 km/h
11.09.2017 22:00 14,5 C 64 % 1005,5 hPa 0,0 l/m 30,5 km/h W-SW 7,8 C 6,9 C 16,9 km/h
11.09.2017 23:00 13,8 C 67 % 1005,6 hPa 0,0 l/m 0,0 km/h W-SW 7,8 C 13,8 C 0,0 km/h
12.09.2017 00:00 13,6 C 68 % 1005,4 hPa 0,0 l/m 3,2 km/h W-SW 7,8 C 13,6 C 1,8 km/h
12.09.2017 01:00 13,1 C 70 % 1005,6 hPa 0,0 l/m 1,3 km/h W 7,8 C 13,1 C 0,7 km/h
12.09.2017 02:00 13,8 C 70 % 1005,2 hPa 0,0 l/m 10,4 km/h W-SW 8,4 C 11,6 C 5,8 km/h
12.09.2017 03:00 13,6 C 71 % 1005,1 hPa 0,0 l/m 33,7 km/h W-SW 8,4 C 5,1 C 18,7 km/h
12.09.2017 04:00 13,4 C 73 % 1005,3 hPa 0,0 l/m 7,8 km/h S 8,7 C 12,5 C 4,3 km/h
12.09.2017 05:00 13,3 C 75 % 1005,8 hPa 0,0 l/m 0,0 km/h S-SO 9,0 C 13,3 C 0,0 km/h
12.09.2017 06:00 11,8 C 81 % 1006,5 hPa 0,0 l/m 0,0 km/h W-SW 8,6 C 11,8 C 0,0 km/h
12.09.2017 07:00 11,3 C 83 % 1007,1 hPa 1,0 l/m 0,0 km/h NW 8,5 C 11,3 C 0,0 km/h
12.09.2017 08:00 11,9 C 82 % 1007,5 hPa 0,0 l/m 0,0 km/h W-NW 8,9 C 11,9 C 0,0 km/h
12.09.2017 09:00 12,4 C 83 % 1008,2 hPa 0,0 l/m 20,7 km/h S-SW 9,6 C 6,2 C 11,5 km/h
12.09.2017 10:00 14,1 C 82 % 1008,7 hPa 0,0 l/m 0,0 km/h S-SO 11,1 C 14,1 C 0,0 km/h
12.09.2017 11:00 16,2 C 72 % 1008,8 hPa 0,0 l/m 2,6 km/h S-SW 11,1 C 16,2 C 1,4 km/h
12.09.2017 12:00 13,4 C 81 % 1009,1 hPa 1,6 l/m 0,0 km/h W-SW 10,2 C 13,4 C 0,0 km/h
12.09.2017 13:00 15,2 C 77 % 1010,1 hPa 0,5 l/m 16,2 km/h S-SO 11,2 C 11,1 C 9,0 km/h
12.09.2017 14:00 20,9 C 61 % 1010,1 hPa 0,0 l/m 0,0 km/h SW 13,1 C 20,9 C 0,0 km/h
12.09.2017 15:00 18,1 C 57 % 1010,0 hPa 0,0 l/m 0,0 km/h W-NW 9,4 C 18,1 C 0,0 km/h
12.09.2017 16:00 13,3 C 75 % 1011,3 hPa 1,6 l/m 7,8 km/h SO 9,0 C 12,4 C 4,3 km/h
12.09.2017 17:00 14,8 C 78 % 1011,6 hPa 0,5 l/m 0,0 km/h S-SW 11,0 C 14,8 C 0,0 km/h
12.09.2017 18:00 14,8 C 68 % 1012,0 hPa 0,0 l/m 0,0 km/h S 9,0 C 14,8 C 0,0 km/h
12.09.2017 19:00 14,1 C 72 % 1012,6 hPa 0,0 l/m 8,4 km/h SW 9,1 C 12,9 C 4,7 km/h
12.09.2017 20:00 13,6 C 74 % 1013,2 hPa 0,0 l/m 0,0 km/h W-SW 9,1 C 13,6 C 0,0 km/h
12.09.2017 21:00 13,9 C 72 % 1014,1 hPa 0,0 l/m 0,0 km/h W-SW 8,9 C 13,9 C 0,0 km/h
12.09.2017 22:00 14,1 C 71 % 1014,0 hPa 0,0 l/m 0,0 km/h S-SW 8,9 C 14,1 C 0,0 km/h
12.09.2017 23:00 13,1 C 72 % 1013,7 hPa 0,0 l/m 0,0 km/h W 8,2 C 13,1 C 0,0 km/h
13.09.2017 00:00 13,8 C 71 % 1013,6 hPa 0,0 l/m 2,6 km/h W 8,6 C 13,8 C 1,4 km/h
13.09.2017 01:00 10,6 C 74 % 1013,2 hPa 0,0 l/m 0,0 km/h W 6,2 C 10,6 C 0,0 km/h
13.09.2017 02:00 9,4 C 79 % 1012,6 hPa 0,0 l/m 0,0 km/h W-NW 5,9 C 9,4 C 0,0 km/h
13.09.2017 03:00 9,6 C 81 % 1012,0 hPa 0,0 l/m 0,0 km/h S-SO 6,5 C 9,6 C 0,0 km/h
13.09.2017 04:00 13,9 C 66 % 1011,3 hPa 0,0 l/m 1,3 km/h SW 7,7 C 13,9 C 0,7 km/h
13.09.2017 05:00 14,8 C 61 % 1010,3 hPa 0,0 l/m 25,9 km/h W-SW 7,4 C 8,2 C 14,4 km/h
13.09.2017 06:00 14,8 C 63 % 1009,7 hPa 0,0 l/m 17,5 km/h W-SW 7,8 C 10,2 C 9,7 km/h
13.09.2017 07:00 15,1 C 62 % 1009,7 hPa 0,0 l/m 22,7 km/h SW 7,9 C 9,2 C 12,6 km/h
13.09.2017 08:00 15,6 C 59 % 1010,0 hPa 0,0 l/m 19,4 km/h W 7,6 C 10,7 C 10,8 km/h
13.09.2017 09:00 15,2 C 63 % 1010,0 hPa 0,0 l/m 21,4 km/h SW 8,2 C 9,7 C 11,9 km/h
13.09.2017 10:00 15,1 C 66 % 1009,8 hPa 0,0 l/m 0,0 km/h W 8,8 C 15,1 C 0,0 km/h
13.09.2017 11:00 16,8 C 67 % 1010,2 hPa 0,0 l/m 0,0 km/h W 10,6 C 16,8 C 0,0 km/h
13.09.2017 12:00 17,3 C 71 % 1010,3 hPa 0,0 l/m 27,9 km/h W 12,0 C 11,2 C 15,5 km/h
13.09.2017 13:00 17,6 C 74 % 1010,4 hPa 0,0 l/m 5,8 km/h W 12,9 C 17,6 C 3,2 km/h
13.09.2017 14:00 17,3 C 77 % 1010,0 hPa 0,0 l/m 11,7 km/h W-SW 13,2 C 15,0 C 6,5 km/h
13.09.2017 15:00 18,5 C 76 % 1009,3 hPa 0,0 l/m 26,6 km/h W 14,2 C 13,1 C 14,8 km/h
13.09.2017 16:00 19,6 C 72 % 1008,6 hPa 0,0 l/m 13,6 km/h SW 14,4 C 17,1 C 7,6 km/h
13.09.2017 17:00 20,4 C 70 % 1007,4 hPa 0,0 l/m 5,8 km/h W-SW 14,7 C 20,4 C 3,2 km/h
13.09.2017 18:00 21,5 C 65 % 1006,7 hPa 0,0 l/m 30,5 km/h W-SW 14,6 C 16,8 C 16,9 km/h
13.09.2017 19:00 21,8 C 63 % 1006,7 hPa 0,0 l/m 35,0 km/h W-NW 14,4 C 16,8 C 19,4 km/h
13.09.2017 20:00 21,6 C 63 % 1006,9 hPa 0,0 l/m 12,3 km/h W 14,2 C 19,8 C 6,8 km/h
13.09.2017 21:00 21,8 C 62 % 1007,1 hPa 0,0 l/m 7,8 km/h W 14,2 C 21,3 C 4,3 km/h
13.09.2017 22:00 21,8 C 61 % 1006,9 hPa 0,0 l/m 0,0 km/h W 13,9 C 21,8 C 0,0 km/h
13.09.2017 23:00 21,6 C 62 % 1006,1 hPa 0,0 l/m 12,3 km/h W-SW 14,0 C 19,8 C 6,8 km/h
14.09.2017 00:00 21,4 C 62 % 1006,0 hPa 0,0 l/m 27,9 km/h W-SW 13,8 C 16,9 C 15,5 km/h
14.09.2017 01:00 21,4 C 62 % 1005,2 hPa 0,0 l/m 44,1 km/h SW 13,8 C 15,5 C 24,5 km/h
14.09.2017 02:00 21,2 C 63 % 1004,3 hPa 0,0 l/m 21,4 km/h W-SW 13,9 C 17,5 C 11,9 km/h
14.09.2017 03:00 21,2 C 62 % 1003,6 hPa 0,0 l/m 5,2 km/h W 13,6 C 21,2 C 2,9 km/h
14.09.2017 04:00 20,8 C 61 % 1003,3 hPa 0,0 l/m 21,4 km/h W 13,0 C 17,0 C 11,9 km/h
14.09.2017 05:00 20,8 C 61 % 1002,8 hPa 0,0 l/m 18,1 km/h SW 13,0 C 17,6 C 10,1 km/h
14.09.2017 06:00 20,8 C 60 % 1002,3 hPa 0,0 l/m 22,7 km/h N 12,7 C 16,8 C 12,6 km/h
14.09.2017 07:00 14,0 C 79 % 1004,1 hPa 1,0 l/m 0,0 km/h W-NW 10,4 C 14,0 C 0,0 km/h
14.09.2017 08:00 12,1 C 83 % 1006,5 hPa 5,2 l/m 0,0 km/h W 9,3 C 12,1 C 0,0 km/h
14.09.2017 09:00 10,9 C 83 % 1008,4 hPa 2,6 l/m 0,0 km/h S 8,1 C 10,9 C 0,0 km/h
14.09.2017 10:00 10,4 C 83 % 1009,3 hPa 1,6 l/m 1,9 km/h S-SO 7,6 C 10,4 C 1,1 km/h
14.09.2017 11:00 9,8 C 82 % 1009,8 hPa 1,0 l/m 16,8 km/h S-SW 6,9 C 4,2 C 9,4 km/h
14.09.2017 12:00 9,9 C 82 % 1010,5 hPa 0,0 l/m 4,5 km/h W 7,0 C 9,9 C 2,5 km/h
14.09.2017 13:00 11,1 C 81 % 1011,2 hPa 0,0 l/m 22,0 km/h S-SW 8,0 C 4,1 C 12,2 km/h
14.09.2017 14:00 14,5 C 73 % 1011,3 hPa 0,5 l/m 37,6 km/h W 9,7 C 5,9 C 20,9 km/h
14.09.2017 15:00 11,6 C 80 % 1012,1 hPa 0,0 l/m 11,7 km/h W-SW 8,3 C 8,5 C 6,5 km/h
14.09.2017 16:00 17,9 C 65 % 1012,3 hPa 0,0 l/m 7,1 km/h SW 11,2 C 17,6 C 4,0 km/h
14.09.2017 17:00 14,5 C 68 % 1012,7 hPa 0,0 l/m 15,6 km/h SW 8,7 C 10,4 C 8,6 km/h
14.09.2017 18:00 15,6 C 64 % 1013,5 hPa 0,0 l/m 8,4 km/h W-SW 8,8 C 14,5 C 4,7 km/h
14.09.2017 19:00 11,9 C 73 % 1014,2 hPa 0,0 l/m 5,2 km/h SO 7,2 C 11,9 C 2,9 km/h
14.09.2017 20:00 10,8 C 77 % 1015,1 hPa 0,0 l/m 0,0 km/h S-SW 6,9 C 10,8 C 0,0 km/h
14.09.2017 21:00 10,9 C 79 % 1015,0 hPa 0,0 l/m 0,0 km/h W-SW 7,4 C 10,9 C 0,0 km/h
14.09.2017 22:00 12,4 C 76 % 1015,1 hPa 0,0 l/m 5,8 km/h SW 8,3 C 12,4 C 3,2 km/h
14.09.2017 23:00 12,1 C 76 % 1015,6 hPa 0,0 l/m 5,8 km/h W 8,0 C 12,1 C 3,2 km/h
15.09.2017 00:00 11,8 C 77 % 1015,2 hPa 0,0 l/m 0,0 km/h S 7,9 C 11,8 C 0,0 km/h
15.09.2017 01:00 11,5 C 78 % 1014,9 hPa 0,0 l/m 0,0 km/h W-SW 7,8 C 11,5 C 0,0 km/h
15.09.2017 02:00 11,1 C 78 % 1014,5 hPa 0,0 l/m 0,0 km/h W 7,4 C 11,1 C 0,0 km/h
15.09.2017 03:00 10,4 C 82 % 1014,3 hPa 0,0 l/m 0,0 km/h W-NW 7,5 C 10,4 C 0,0 km/h
15.09.2017 04:00 10,1 C 83 % 1013,7 hPa 0,0 l/m 0,0 km/h W-NW 7,3 C 10,1 C 0,0 km/h
15.09.2017 05:00 9,7 C 83 % 1013,3 hPa 0,0 l/m 0,0 km/h W-NW 7,0 C 9,7 C 0,0 km/h
15.09.2017 06:00 8,9 C 84 % 1012,8 hPa 0,0 l/m 0,0 km/h SO 6,3 C 8,9 C 0,0 km/h
15.09.2017 07:00 8,8 C 83 % 1012,5 hPa 0,0 l/m 0,0 km/h O-SO 6,1 C 8,8 C 0,0 km/h
15.09.2017 08:00 11,2 C 82 % 1012,2 hPa 0,0 l/m 0,0 km/h SW 8,2 C 11,2 C 0,0 km/h
15.09.2017 09:00 17,5 C 68 % 1012,4 hPa 0,0 l/m 0,0 km/h S 11,5 C 17,5 C 0,0 km/h
15.09.2017 10:00 19,1 C 58 % 1012,5 hPa 0,0 l/m 5,8 km/h W-SW 10,6 C 19,1 C 3,2 km/h
15.09.2017 11:00 18,3 C 54 % 1012,5 hPa 0,0 l/m 0,0 km/h SW 8,8 C 18,3 C 0,0 km/h
15.09.2017 12:00 21,3 C 47 % 1012,0 hPa 0,0 l/m 0,0 km/h SW 9,5 C 21,3 C 0,0 km/h
15.09.2017 13:00 20,1 C 46 % 1011,3 hPa 0,0 l/m 4,5 km/h W 8,1 C 20,1 C 2,5 km/h
15.09.2017 14:00 22,6 C 37 % 1010,4 hPa 0,0 l/m 4,5 km/h W-SW 7,2 C 22,6 C 2,5 km/h
15.09.2017 15:00 23,5 C 37 % 1009,9 hPa 0,0 l/m 0,0 km/h W 8,0 C 23,5 C 0,0 km/h
15.09.2017 16:00 20,9 C 36 % 1009,6 hPa 0,0 l/m 8,4 km/h N-NO 5,3 C 20,2 C 4,7 km/h
15.09.2017 17:00 22,4 C 43 % 1009,3 hPa 0,0 l/m 0,0 km/h NW 9,2 C 22,4 C 0,0 km/h
15.09.2017 18:00 20,3 C 46 % 1009,7 hPa 0,0 l/m 0,0 km/h N 8,3 C 20,3 C 0,0 km/h
15.09.2017 19:00 13,8 C 60 % 1010,1 hPa 0,0 l/m 0,0 km/h N-NO 6,2 C 13,8 C 0,0 km/h
15.09.2017 20:00 10,6 C 72 % 1010,5 hPa 0,0 l/m 0,0 km/h O-SO 5,8 C 10,6 C 0,0 km/h
15.09.2017 21:00 8,9 C 78 % 1010,5 hPa 0,0 l/m 0,0 km/h O-NO 5,3 C 8,9 C 0,0 km/h
15.09.2017 22:00 8,5 C 80 % 1010,7 hPa 0,0 l/m 0,0 km/h O-SO 5,3 C 8,5 C 0,0 km/h
15.09.2017 23:00 7,4 C 82 % 1010,4 hPa 0,0 l/m 0,0 km/h SO 4,5 C 7,4 C 0,0 km/h
16.09.2017 00:00 7,0 C 83 % 1010,1 hPa 0,0 l/m 0,0 km/h O-SO 4,3 C 7,0 C 0,0 km/h
16.09.2017 01:00 6,4 C 84 % 1010,2 hPa 0,0 l/m 0,0 km/h O 3,9 C 6,4 C 0,0 km/h
16.09.2017 02:00 5,9 C 84 % 1010,0 hPa 0,0 l/m 0,0 km/h O-SO 3,4 C 5,9 C 0,0 km/h
16.09.2017 03:00 5,5 C 84 % 1009,7 hPa 0,0 l/m 0,0 km/h SO 3,0 C 5,5 C 0,0 km/h
16.09.2017 04:00 5,1 C 83 % 1009,6 hPa 0,0 l/m 0,0 km/h SO 2,5 C 5,1 C 0,0 km/h
16.09.2017 05:00 5,4 C 83 % 1009,5 hPa 0,0 l/m 0,0 km/h N-NO 2,7 C 5,4 C 0,0 km/h
16.09.2017 06:00 5,4 C 83 % 1009,4 hPa 0,0 l/m 0,0 km/h O-SO 2,7 C 5,4 C 0,0 km/h
16.09.2017 07:00 6,3 C 81 % 1009,6 hPa 0,0 l/m 0,0 km/h O-SO 3,3 C 6,3 C 0,0 km/h
16.09.2017 08:00 8,4 C 81 % 1009,8 hPa 0,0 l/m 0,0 km/h SO 5,3 C 8,4 C 0,0 km/h
16.09.2017 09:00 11,2 C 83 % 1010,2 hPa 0,0 l/m 0,0 km/h O-NO 8,4 C 11,2 C 0,0 km/h
16.09.2017 10:00 18,5 C 71 % 1010,0 hPa 0,0 l/m 0,0 km/h W 13,1 C 18,5 C 0,0 km/h
16.09.2017 11:00 17,9 C 58 % 1009,8 hPa 0,0 l/m 0,0 km/h NO 9,5 C 17,9 C 0,0 km/h
16.09.2017 12:00 21,4 C 51 % 1009,4 hPa 0,0 l/m 0,0 km/h N-NO 10,8 C 21,4 C 0,0 km/h
16.09.2017 13:00 20,9 C 46 % 1009,1 hPa 0,0 l/m 0,0 km/h NW 8,8 C 20,9 C 0,0 km/h
16.09.2017 14:00 19,1 C 51 % 1008,9 hPa 0,0 l/m 0,0 km/h W-SW 8,7 C 19,1 C 0,0 km/h
16.09.2017 15:00 12,5 C 70 % 1010,3 hPa 0,0 l/m 2,6 km/h O-SO 7,2 C 12,5 C 1,4 km/h
16.09.2017 16:00 12,5 C 80 % 1010,4 hPa 1,0 l/m 0,0 km/h O-SO 9,1 C 12,5 C 0,0 km/h
16.09.2017 17:00 12,7 C 77 % 1010,2 hPa 0,0 l/m 12,3 km/h SO 8,8 C 9,5 C 6,8 km/h
16.09.2017 18:00 10,9 C 82 % 1010,5 hPa 0,0 l/m 0,0 km/h S-SO 7,9 C 10,9 C 0,0 km/h
16.09.2017 19:00 10,1 C 83 % 1010,5 hPa 0,5 l/m 0,0 km/h O 7,3 C 10,1 C 0,0 km/h
16.09.2017 20:00 9,2 C 83 % 1011,3 hPa 0,0 l/m 0,0 km/h W 6,5 C 9,2 C 0,0 km/h
16.09.2017 21:00 9,4 C 83 % 1012,3 hPa 0,0 l/m 0,0 km/h SO 6,7 C 9,4 C 0,0 km/h
16.09.2017 22:00 9,9 C 82 % 1011,9 hPa 0,0 l/m 0,0 km/h O-SO 7,0 C 9,9 C 0,0 km/h
16.09.2017 23:00 8,6 C 82 % 1011,4 hPa 0,0 l/m 0,0 km/h O 5,7 C 8,6 C 0,0 km/h
17.09.2017 00:00 7,3 C 82 % 1011,3 hPa 0,5 l/m 0,0 km/h NO 4,4 C 7,3 C 0,0 km/h
17.09.2017 01:00 6,3 C 81 % 1011,2 hPa 0,0 l/m 0,0 km/h NO 3,3 C 6,3 C 0,0 km/h
17.09.2017 02:00 5,1 C 82 % 1011,5 hPa 0,0 l/m 0,0 km/h NO 2,3 C 5,1 C 0,0 km/h
17.09.2017 03:00 4,8 C 81 % 1011,3 hPa 0,0 l/m 0,0 km/h NO 1,8 C 4,8 C 0,0 km/h
17.09.2017 04:00 6,2 C 80 % 1011,4 hPa 0,0 l/m 0,0 km/h NO 3,0 C 6,2 C 0,0 km/h
17.09.2017 05:00 6,6 C 79 % 1011,0 hPa 0,0 l/m 0,0 km/h O-SO 3,2 C 6,6 C 0,0 km/h
17.09.2017 06:00 6,4 C 78 % 1011,1 hPa 0,0 l/m 0,0 km/h O-SO 2,8 C 6,4 C 0,0 km/h
17.09.2017 07:00 7,0 C 77 % 1011,9 hPa 0,0 l/m 0,0 km/h SO 3,2 C 7,0 C 0,0 km/h
17.09.2017 08:00 8,1 C 75 % 1012,0 hPa 0,0 l/m 0,0 km/h N 3,9 C 8,1 C 0,0 km/h
17.09.2017 09:00 11,0 C 77 % 1012,4 hPa 0,0 l/m 0,0 km/h W-NW 7,1 C 11,0 C 0,0 km/h
17.09.2017 10:00 11,9 C 84 % 1012,3 hPa 0,0 l/m 0,0 km/h W-NW 9,3 C 11,9 C 0,0 km/h
17.09.2017 11:00 12,6 C 83 % 1012,3 hPa 0,0 l/m 0,0 km/h W-SW 9,8 C 12,6 C 0,0 km/h
17.09.2017 12:00 17,1 C 77 % 1012,0 hPa 0,0 l/m 0,0 km/h S 13,0 C 17,1 C 0,0 km/h
17.09.2017 13:00 19,8 C 63 % 1011,4 hPa 0,0 l/m 0,0 km/h S 12,5 C 19,8 C 0,0 km/h
17.09.2017 14:00 21,1 C 54 % 1010,6 hPa 0,0 l/m 0,0 km/h SW 11,4 C 21,1 C 0,0 km/h
17.09.2017 15:00 17,6 C 57 % 1010,6 hPa 0,0 l/m 0,0 km/h SW 9,0 C 17,6 C 0,0 km/h
17.09.2017 16:00 17,9 C 58 % 1010,4 hPa 0,0 l/m 0,0 km/h N 9,5 C 17,9 C 0,0 km/h
17.09.2017 17:00 22,4 C 50 % 1010,3 hPa 0,0 l/m 0,0 km/h N 11,5 C 22,4 C 0,0 km/h
17.09.2017 18:00 14,5 C 62 % 1010,5 hPa 0,0 l/m 0,0 km/h W-NW 7,3 C 14,5 C 0,0 km/h
17.09.2017 19:00 11,7 C 75 % 1011,3 hPa 0,0 l/m 0,0 km/h W-SW 7,4 C 11,7 C 0,0 km/h
17.09.2017 20:00 10,6 C 79 % 1012,6 hPa 0,0 l/m 0,0 km/h W-SW 7,1 C 10,6 C 0,0 km/h
17.09.2017 21:00 9,4 C 83 % 1013,2 hPa 0,5 l/m 0,0 km/h O-SO 6,7 C 9,4 C 0,0 km/h
17.09.2017 22:00 9,0 C 83 % 1013,1 hPa 2,1 l/m 0,0 km/h O-SO 6,3 C 9,0 C 0,0 km/h
17.09.2017 23:00 8,9 C 83 % 1013,2 hPa 0,5 l/m 0,0 km/h O-SO 6,2 C 8,9 C 0,0 km/h
Min-Datum _ 17.09.17 15.09.17 11.09.17 - 11.09.17 - 17.09.17 14.09.17 11.09.17
_ Min-Zeit 03:53 16:53 06:53 - 00:53 - 03:53 13:53 00:53
Minimum _ 4,8 C 36 % 1000,9 hPa - 0,0 km/h - 1,8 C 4,1 C 0,0 km/h
Max-Datum _ 15.09.17 15.09.17 14.09.17 14.09.17 14.09.17 - 13.09.17 15.09.17 14.09.17
_ Max-Zeit 15:53 06:53 23:53 08:53 01:53 - 17:53 15:53 01:53
Maximum _ 23,5 C 84 % 1015,6 hPa 5,2 l/m 44,1 km/h
SW
- 14,7 C 23,5 C 24,5 km/h
SW
Durchschnitt _ 13,9 C 71 % 1009,2 hPa #22,3 l/m 5,6 km/h W-SW 8,5 C 12,9 C 3,1 km/h
www.sexauwetter.de